createdAt,value
2022-09-11T00:01:51.105Z,91.29
2022-09-11T00:04:19.679Z,91.28
2022-09-11T00:06:50.384Z,90.77
2022-09-11T00:09:18.708Z,89.84
2022-09-11T00:11:47.226Z,89.90
2022-09-11T00:14:15.925Z,90.48
2022-09-11T00:16:47.274Z,90.61
2022-09-11T00:19:19.720Z,90.45
2022-09-11T00:21:56.088Z,90.36
2022-09-11T00:24:24.559Z,90.04
2022-09-11T00:26:52.781Z,89.99
2022-09-11T00:29:21.506Z,89.23
2022-09-11T00:31:50.137Z,89.61
2022-09-11T00:34:19.039Z,89.30
2022-09-11T00:36:48.598Z,88.93
2022-09-11T00:39:18.208Z,89.37
2022-09-11T00:41:46.430Z,89.46
2022-09-11T00:44:21.223Z,89.23
2022-09-11T00:47:02.726Z,89.62
2022-09-11T00:49:47.414Z,89.89
2022-09-11T00:52:21.907Z,90.16
2022-09-11T00:55:07.537Z,90.57
2022-09-11T00:57:42.545Z,90.49
2022-09-11T01:00:13.581Z,90.22
2022-09-11T01:02:47.321Z,90.03
2022-09-11T01:05:19.348Z,89.56
2022-09-11T01:07:48.121Z,89.39
2022-09-11T01:10:16.988Z,89.75
2022-09-11T01:13:01.662Z,89.92
2022-09-11T01:15:29.755Z,89.80
2022-09-11T01:18:10.913Z,89.78
2022-09-11T01:21:13.492Z,89.88
2022-09-11T01:24:10.290Z,90.67
2022-09-11T01:27:27.412Z,90.93
2022-09-11T01:30:02.993Z,91.27
2022-09-11T01:33:03.679Z,91.74
2022-09-11T01:35:51.820Z,91.69
2022-09-11T01:38:29.690Z,91.37
2022-09-11T01:41:27.904Z,90.99
2022-09-11T01:44:07.387Z,90.53
2022-09-11T01:46:42.967Z,90.40
2022-09-11T01:49:19.718Z,90.14
2022-09-11T01:51:52.571Z,90.37
2022-09-11T01:54:27.562Z,90.40
2022-09-11T01:57:06.935Z,90.42
2022-09-11T01:59:48.052Z,90.11
2022-09-11T02:02:24.292Z,90.44
2022-09-11T02:05:01.260Z,90.78
2022-09-11T02:07:42.630Z,90.77
2022-09-11T02:10:18.417Z,90.69
2022-09-11T02:13:01.218Z,90.40
2022-09-11T02:15:42.967Z,90.39
2022-09-11T02:18:27.010Z,90.51
2022-09-11T02:20:56.210Z,90.01
2022-09-11T02:23:24.540Z,90.11
2022-09-11T02:25:53.889Z,90.28
2022-09-11T02:28:22.053Z,90.58
2022-09-11T02:30:50.648Z,90.90
2022-09-11T02:33:33.113Z,90.51
2022-09-11T02:36:20.204Z,90.45
2022-09-11T02:39:00.717Z,90.59
2022-09-11T02:41:55.458Z,91.04
2022-09-11T02:44:56.542Z,91.32
2022-09-11T02:47:47.082Z,92.17
2022-09-11T02:50:55.875Z,92.37
2022-09-11T02:53:32.539Z,92.95
2022-09-11T02:56:29.652Z,93.33
2022-09-11T02:59:04.568Z,93.54
2022-09-11T03:01:53.124Z,92.93
2022-09-11T03:04:24.770Z,93.03
2022-09-11T03:06:55.876Z,92.76
2022-09-11T03:09:24.710Z,92.42
2022-09-11T03:11:56.522Z,92.32
2022-09-11T03:14:24.895Z,91.92
2022-09-11T03:16:53.721Z,91.57
2022-09-11T03:19:22.125Z,91.89
2022-09-11T03:21:51.734Z,92.11
2022-09-11T03:24:22.538Z,91.91
2022-09-11T03:26:52.284Z,91.78
2022-09-11T03:29:22.676Z,91.03
2022-09-11T03:31:53.929Z,91.31
2022-09-11T03:34:23.124Z,90.80
2022-09-11T03:36:52.564Z,90.20
2022-09-11T03:39:21.620Z,89.67
2022-09-11T03:41:52.180Z,89.87
2022-09-11T03:44:22.115Z,90.59
2022-09-11T03:46:52.781Z,90.97
2022-09-11T03:49:20.922Z,90.99
2022-09-11T03:51:50.016Z,91.32
2022-09-11T03:54:21.032Z,91.62
2022-09-11T03:56:50.422Z,91.48
2022-09-11T03:59:20.108Z,91.97
2022-09-11T04:01:50.899Z,92.32
2022-09-11T04:04:21.455Z,92.08
2022-09-11T04:06:49.591Z,91.71
2022-09-11T04:09:19.183Z,91.69
2022-09-11T04:11:49.106Z,92.06
2022-09-11T04:14:25.626Z,91.97
2022-09-11T04:16:55.636Z,92.14
2022-09-11T04:19:24.477Z,92.02
2022-09-11T04:21:53.044Z,92.13
2022-09-11T04:24:23.529Z,91.47
2022-09-11T04:26:56.304Z,91.00
2022-09-11T04:29:29.797Z,90.18
2022-09-11T04:31:59.589Z,88.73
2022-09-11T04:34:32.254Z,87.39
2022-09-11T04:37:01.288Z,86.20
2022-09-11T04:39:32.080Z,85.36
2022-09-11T04:42:02.229Z,81.28
2022-09-11T04:44:32.661Z,80.79
2022-09-11T04:47:01.903Z,79.22
2022-09-11T04:49:33.610Z,75.31
2022-09-11T04:52:07.113Z,74.33
2022-09-11T04:54:38.683Z,73.72
2022-09-11T04:57:14.648Z,71.43
2022-09-11T04:59:48.883Z,72.48
2022-09-11T05:02:20.689Z,69.55
2022-09-11T05:04:52.298Z,68.01
2022-09-11T05:07:23.922Z,67.60
2022-09-11T12:56:38.295Z,39.38
2022-09-11T14:23:21.353Z,40.29
2022-09-11T14:26:35.741Z,40.75
2022-09-11T14:29:26.205Z,40.31
2022-09-11T14:32:16.114Z,41.02
2022-09-11T14:34:49.486Z,40.45
2022-09-11T14:37:21.243Z,39.98
2022-09-11T14:39:59.632Z,39.99
2022-09-11T14:42:39.031Z,40.05
2022-09-11T14:45:19.196Z,39.93
2022-09-11T14:47:53.137Z,40.51
2022-09-11T14:50:23.702Z,40.77
2022-09-11T14:52:53.696Z,41.06
2022-09-11T14:55:24.578Z,41.34
2022-09-11T14:57:58.062Z,41.58
2022-09-11T15:00:28.276Z,42.07
2022-09-11T15:02:57.693Z,42.02
2022-09-11T15:05:28.510Z,42.35
2022-09-11T15:08:00.492Z,42.29
2022-09-11T15:10:30.509Z,43.13
2022-09-11T15:13:00.123Z,44.23
2022-09-11T15:15:30.057Z,44.35
2022-09-11T15:18:06.110Z,44.55
2022-09-11T15:20:37.269Z,44.70
2022-09-11T15:23:06.924Z,44.97
2022-09-11T15:25:36.484Z,45.54
2022-09-11T15:28:13.622Z,45.56
2022-09-11T15:30:46.813Z,45.80
2022-09-11T15:33:18.638Z,45.83
2022-09-11T15:35:48.304Z,45.97
2022-09-11T15:38:21.226Z,45.43
2022-09-11T15:40:58.721Z,45.94
2022-09-11T15:43:39.337Z,46.32
2022-09-11T15:46:15.812Z,46.77
2022-09-11T15:48:45.006Z,46.61
2022-09-11T15:51:18.475Z,46.78
2022-09-11T15:53:49.028Z,47.13
2022-09-11T15:56:23.947Z,47.23
2022-09-11T15:58:59.783Z,47.80
2022-09-11T16:01:33.226Z,48.20
2022-09-11T16:04:05.659Z,47.88
2022-09-11T16:06:40.289Z,48.08
2022-09-11T16:09:14.126Z,47.94
2022-09-11T16:11:47.445Z,48.22
2022-09-11T16:14:31.981Z,47.93
2022-09-11T16:17:02.585Z,48.05
2022-09-11T16:19:35.767Z,48.23
2022-09-11T16:22:07.315Z,48.59
2022-09-11T16:24:38.006Z,48.58
2022-09-11T16:27:10.034Z,49.32
2022-09-11T16:32:29.509Z,50.17
2022-09-11T16:34:59.884Z,50.55
2022-09-11T16:37:37.481Z,50.73
2022-09-11T16:40:08.667Z,51.93
2022-09-11T16:42:38.304Z,52.10
2022-09-11T16:45:09.625Z,52.45
2022-09-11T16:47:38.223Z,52.52
2022-09-11T16:50:08.700Z,52.96
2022-09-11T16:52:39.504Z,53.44
2022-09-11T16:55:11.035Z,53.69
2022-09-11T16:57:44.130Z,53.66
2022-09-11T17:00:15.754Z,53.73
2022-09-11T17:02:46.832Z,54.29
2022-09-11T17:05:17.724Z,54.62
2022-09-11T17:07:48.146Z,54.79
2022-09-11T17:10:17.403Z,55.07
2022-09-11T17:12:45.978Z,55.45
2022-09-11T17:15:17.789Z,55.35
2022-09-11T17:17:49.957Z,55.31
2022-09-11T17:20:18.507Z,55.90
2022-09-11T17:22:47.030Z,56.11
2022-09-11T17:25:15.835Z,56.72
2022-09-11T17:27:46.906Z,56.64
2022-09-11T17:30:18.971Z,57.11
2022-09-11T17:32:50.139Z,57.37
2022-09-11T17:35:20.582Z,57.37
2022-09-11T17:37:51.951Z,58.08
2022-09-11T17:40:26.557Z,58.68
2022-09-11T17:42:56.093Z,58.76
2022-09-11T17:45:25.757Z,58.36
2022-09-11T17:47:55.769Z,58.59
2022-09-11T17:50:24.719Z,58.56
2022-09-11T17:52:55.253Z,59.17
2022-09-11T17:55:24.943Z,59.34
2022-09-11T17:57:54.416Z,59.63
2022-09-11T18:00:23.447Z,59.97
2022-09-11T18:02:54.237Z,59.97
2022-09-11T18:05:22.776Z,59.96
2022-09-11T18:07:51.439Z,60.14
2022-09-11T18:10:21.525Z,60.88
2022-09-11T18:12:52.941Z,61.48
2022-09-11T18:15:21.920Z,61.49
2022-09-11T18:17:54.077Z,62.04
2022-09-11T18:20:25.149Z,62.39
2022-09-11T18:22:54.859Z,62.40
2022-09-11T18:25:25.373Z,63.22
2022-09-11T18:27:55.014Z,64.84
2022-09-11T18:30:24.171Z,65.60
2022-09-11T18:32:53.783Z,67.98
2022-09-11T18:35:23.228Z,70.25
2022-09-11T18:37:55.449Z,72.17
2022-09-11T18:40:23.872Z,72.96
2022-09-11T18:42:52.531Z,74.11
2022-09-11T18:45:21.045Z,74.05
2022-09-11T18:47:55.317Z,75.04
2022-09-11T18:50:24.473Z,75.59
2022-09-11T18:52:53.869Z,76.76
2022-09-11T18:55:23.133Z,76.60
2022-09-11T18:57:51.660Z,76.38
2022-09-11T19:00:21.240Z,76.45
2022-09-11T19:02:52.773Z,76.73
2022-09-11T19:05:22.200Z,76.73
2022-09-11T19:07:51.011Z,76.35
2022-09-11T19:10:19.536Z,75.96
2022-09-11T19:12:49.532Z,75.97
2022-09-11T19:15:18.191Z,76.65
2022-09-11T19:17:47.976Z,76.47
2022-09-11T19:20:18.044Z,76.31
2022-09-11T19:22:47.688Z,76.28
2022-09-11T19:25:16.200Z,76.37
2022-09-11T19:27:45.125Z,76.20
2022-09-11T19:30:14.358Z,76.16
2022-09-11T19:32:45.563Z,76.25
2022-09-11T19:35:14.199Z,76.57
2022-09-11T19:37:44.296Z,77.88
2022-09-11T19:40:14.464Z,77.97
2022-09-11T19:42:45.519Z,78.59
2022-09-11T19:45:13.847Z,79.54
2022-09-11T19:47:42.909Z,78.95
2022-09-11T19:50:13.101Z,78.45
2022-09-11T19:52:41.329Z,78.52
2022-09-11T19:55:12.761Z,78.88
2022-09-11T19:57:43.286Z,78.79
2022-09-11T20:00:12.853Z,79.04
2022-09-11T20:02:41.223Z,79.10
2022-09-11T20:05:10.034Z,79.15
2022-09-11T20:07:38.450Z,79.57
2022-09-11T20:10:08.394Z,80.09
2022-09-11T20:12:37.947Z,79.94
2022-09-11T20:15:08.032Z,79.84
2022-09-11T20:17:37.318Z,79.83
2022-09-11T20:20:07.300Z,79.66
2022-09-11T20:22:36.184Z,79.57
2022-09-11T20:25:06.603Z,79.66
2022-09-11T20:27:35.589Z,79.62
2022-09-11T20:30:06.735Z,79.95
2022-09-11T20:32:39.207Z,80.25
2022-09-11T20:35:09.663Z,79.77
2022-09-11T20:37:38.995Z,80.05
2022-09-11T20:40:09.360Z,79.69
2022-09-11T20:42:39.897Z,79.58
2022-09-11T20:45:08.874Z,79.60
2022-09-11T20:47:37.702Z,79.40
2022-09-11T20:50:07.482Z,79.91
2022-09-11T20:52:39.344Z,80.74
2022-09-11T20:55:09.329Z,81.17
2022-09-11T20:57:37.671Z,80.88
2022-09-11T21:00:07.075Z,81.52
2022-09-11T21:02:36.544Z,81.75
2022-09-11T21:05:05.347Z,81.34
2022-09-11T21:07:34.820Z,80.97
2022-09-11T21:10:03.282Z,80.89
2022-09-11T21:12:31.751Z,80.74
2022-09-11T21:15:00.393Z,81.00
2022-09-11T21:17:28.801Z,80.97
2022-09-11T21:19:58.099Z,80.73
2022-09-11T21:22:27.285Z,80.62
2022-09-11T21:24:55.660Z,80.50
2022-09-11T21:27:24.264Z,80.72
2022-09-11T21:29:52.807Z,81.11
2022-09-11T21:32:21.794Z,80.79
2022-09-11T21:34:50.451Z,80.97
2022-09-11T21:37:21.732Z,81.21
2022-09-11T21:39:50.943Z,81.64
2022-09-11T21:42:20.262Z,81.84
2022-09-11T21:44:49.948Z,81.93
2022-09-11T21:47:18.898Z,82.13
2022-09-11T21:49:47.547Z,82.78
2022-09-11T21:52:15.859Z,82.72
2022-09-11T21:54:45.530Z,82.27
2022-09-11T21:57:15.461Z,82.64
2022-09-11T21:59:43.664Z,82.45
2022-09-11T22:02:13.143Z,82.74
2022-09-11T22:04:43.568Z,82.81
2022-09-11T22:07:12.474Z,82.59
2022-09-11T22:09:41.245Z,82.20
2022-09-11T22:12:10.794Z,82.38
2022-09-11T22:14:39.867Z,82.49
2022-09-11T22:17:08.068Z,83.12
2022-09-11T22:19:36.359Z,83.11
2022-09-11T22:22:06.949Z,82.91
2022-09-11T22:24:35.238Z,82.63
2022-09-11T22:27:06.881Z,82.23
2022-09-11T22:29:35.519Z,82.26
2022-09-11T22:32:07.676Z,82.01
2022-09-11T22:34:36.874Z,81.70
2022-09-11T22:37:06.413Z,81.64
2022-09-11T22:39:34.612Z,81.55
2022-09-11T22:42:05.161Z,81.22
2022-09-11T22:44:34.363Z,81.02
2022-09-11T22:47:04.653Z,80.74
2022-09-11T22:49:33.380Z,80.72
2022-09-11T22:52:01.937Z,80.52
2022-09-11T22:54:30.246Z,80.72
2022-09-11T22:56:58.772Z,80.59
2022-09-11T22:59:27.783Z,80.35
2022-09-11T23:01:56.835Z,80.24
2022-09-11T23:04:26.867Z,79.96
2022-09-11T23:07:15.047Z,80.06
2022-09-11T23:09:44.892Z,80.05
2022-09-11T23:12:15.296Z,80.29
2022-09-11T23:14:44.081Z,80.32
2022-09-11T23:17:12.761Z,80.37
2022-09-11T23:19:41.352Z,80.63
2022-09-11T23:22:09.695Z,80.54
2022-09-11T23:24:38.731Z,80.73
2022-09-11T23:27:07.804Z,81.05
2022-09-11T23:29:37.224Z,80.80
2022-09-11T23:32:05.720Z,80.70
2022-09-11T23:34:35.105Z,80.03
2022-09-11T23:37:03.687Z,80.24
2022-09-11T23:39:32.106Z,80.19
2022-09-11T23:42:03.019Z,80.11
2022-09-11T23:44:32.367Z,80.35
2022-09-11T23:47:02.433Z,80.24
2022-09-11T23:49:35.504Z,80.27
2022-09-11T23:52:06.413Z,80.22
2022-09-11T23:54:36.063Z,80.36
2022-09-11T23:57:04.582Z,80.16
2022-09-11T23:59:35.837Z,80.25
